ADDS METAR Data INFO
IDs: Format: Raw Decoded Include TAF

Data at: 2225 UTC 24 Jun 2018

KFYV 242153Z 15009KT 10SM SCT022 BKN047 BKN110 25/19 A2991 RMK AO2 PRESFR SLP115 T02500194
KFYV 242053Z 26003KT 10SM FEW019 SCT025 BKN041 24/20 A2996 RMK AO2 SLP133 T02390200 50003
KFYV 241953Z 30004KT 10SM FEW065 23/19 A2997 RMK AO2 SLP135 T02330194
KFYV 241853Z 23009KT 10SM FEW050 SCT065 24/19 A2997 RMK AO2 SLP135 T02390189
KFYV 241753Z 28010G15KT 250V320 10SM SCT020 24/19 A2995 RMK AO2 SLP131 60048 T02390194 10239 20200 51036
KFYV 241736Z 27008KT 10SM BKN019 23/19 A2996 RMK AO2 T02330194
KFYV 241719Z 24009KT 10SM FEW017 23/19 A2995 RMK AO2 T02280194
KFYV 241653Z VRB06KT 10SM BKN017 BKN024 22/19 A2995 RMK AO2 RAB1557E07 SLP131 P0000 T02170189
KFYV 241553Z 27009KT 10SM BKN015 BKN110 21/19 A2992 RMK AO2 PRESRR SLP119 T02110194
KFYV 241453Z 27013KT 10SM FEW025 FEW110 21/19 A2984 RMK AO2 RAE34 SLP093 P0002 60048 T02110194 50000
KFYV 241434Z 21008G17KT 10SM FEW110 21/19 A2981 RMK AO2 LTG DSNT NE-S RAE34 PRESRR P0002 T02060189
KFYV 241414Z 12008KT 10SM VCTS -RA FEW110 21/19 A2977 RMK AO2 LTG DSNT E-S PRESFR P0001 T02060194
KFYV 241353Z 14005KT 9SM -RA SCT110 20/19 A2982 RMK AO2 LTG DSNT ALQDS TSE10B11E26 PRESFR SLP086 P0011 T02000189
KFYV 241343Z 19006KT 8SM -RA SCT110 20/19 A2984 RMK AO2 LTG DSNT N-SE TSE10B11E26 P0011 T02000189
KFYV 241332Z 11004KT 7SM VCTS -RA BKN110 20/19 A2985 RMK AO2 LTG DSNT ALQDS TSE10B11E26 P0009 T02000189
KFYV 241253Z 17010KT 3SM +TSRA BR FEW007 BKN034 OVC080 21/21 A2990 RMK AO2 LTG DSNT ALQDS TSB41 SLP112 P0035 T02060206
KFYV 241153Z 18005KT 6SM VCTS -RA BR SCT110 23/22 A2984 RMK AO2 LTG DSNT SE-W SLP090 P0006 60009 70009 T02280217 10228 20200 51001
KFYV 241127Z 18006KT 9SM VCTS -RA SCT100 23/22 A2984 RMK AO2 LTG DSNT ALQDS P0003 T02280217
KFYV 241112Z 15004KT 10SM -RA SCT095 23/22 A2983 RMK AO2 LTG DSNT ALQDS P0001 T02280217
KFYV 241053Z AUTO 00000KT 8SM VCTS -RA FEW070 BKN100 22/21 A2984 RMK AO2 LTG DSNT ALQDS RAB17 TSB27E51 SLP089 P0003 T02220211
KFYV 241033Z AUTO 00000KT 10SM -TSRA SCT070 SCT095 BKN110 21/20 A2986 RMK AO2 LTG DSNT ALQDS RAB17 TSB27 P0001 T02110200
KFYV 240953Z AUTO 00000KT 10SM FEW075 BKN110 21/19 A2985 RMK AO2 LTG DSNT NE SLP094 T02110194
KFYV 240853Z AUTO 00000KT 10SM BKN090 BKN100 21/19 A2984 RMK AO2 SLP089 T02060194 58010
KFYV 240753Z AUTO 31005KT 10SM CLR 20/19 A2984 RMK AO2 SLP089 T02000194
KFYV 240653Z AUTO 18003KT 10SM SCT110 20/19 A2988 RMK AO2 SLP103 T02000189
KFYV 240553Z AUTO 18003KT 10SM SCT120 20/19 A2987 RMK AO2 SLP102 T02000189 10289 20200 403000178 51004
KFYV 240453Z AUTO 00000KT 10SM CLR 20/19 A2987 RMK AO2 SLP101 T02000189
KFYV 240353Z AUTO 00000KT 10SM CLR 21/19 A2988 RMK AO2 SLP105 T02110194
KFYV 240253Z AUTO 15003KT 10SM CLR 22/20 A2986 RMK AO2 SLP099 T02170200 53008
KFYV 240153Z 00000KT 10SM CLR 23/20 A2984 RMK AO2 SLP092 T02330200
KFYV 240053Z 00000KT 10SM CLR 26/20 A2984 RMK AO2 SLP091 T02610200
KFYV 232353Z 23004KT 10SM CLR 28/18 A2984 RMK AO2 SLP089 T02830183 10300 20261 58000
KFYV 232253Z 26005KT 10SM CLR 29/19 A2984 RMK AO2 SLP089 T02940189
KFYV 232153Z 25008KT 10SM CLR 29/17 A2984 RMK AO2 SLP091 T02940172
KFYV 232053Z 25007G15KT 10SM CLR 29/18 A2984 RMK AO2 SLP089 T02940178 55003
KFYV 231953Z 26011G19KT 10SM CLR 29/18 A2983 RMK AO2 SLP088 T02940178
KFYV 231853Z 24014G18KT 10SM CLR 28/18 A2984 RMK AO2 SLP092 T02780183
KFYV 231753Z 27009G18KT 10SM CLR 27/19 A2985 RMK AO2 SLP093 T02670189 10267 20183 50006
KFYV 231653Z 24008KT 10SM CLR 25/19 A2986 RMK AO2 SLP099 T02500189
KFYV 231553Z 21010KT 10SM CLR 23/19 A2985 RMK AO2 SLP094 T02330189
KFYV 231453Z 21007KT 10SM CLR 22/18 A2983 RMK AO2 SLP088 T02170183 50015
KFYV 231353Z 25006KT 10SM CLR 21/19 A2987 RMK AO2 PRESRR SLP102 T02110189
KFYV 231253Z 00000KT 10SM CLR 20/18 A2983 RMK AO2 SLP086 T02000183
KFYV 231153Z 00000KT 10SM CLR 18/18 A2978 RMK AO2 SLP071 60016 70016 T01830178 10206 20178 55020
KFYV 231053Z 16003KT 10SM CLR 19/17 A2977 RMK AO2 WSHFT 0940 RAE0957 SLP066 P0000 T01940172